sensor_id;sensor_type;location;lat;lon;timestamp;temperature;humidity
49042;DHT22;34859;51.608;11.462;2023-09-08T00:01:03;14.00;99.90
49042;DHT22;34859;51.608;11.462;2023-09-08T00:03:49;14.10;99.90
49042;DHT22;34859;51.608;11.462;2023-09-08T00:06:35;13.90;99.90
49042;DHT22;34859;51.608;11.462;2023-09-08T00:09:21;14.00;99.90
49042;DHT22;34859;51.608;11.462;2023-09-08T00:12:06;14.10;99.90
49042;DHT22;34859;51.608;11.462;2023-09-08T00:14:52;14.10;99.90
49042;DHT22;34859;51.608;11.462;2023-09-08T00:17:38;14.10;99.90
49042;DHT22;34859;51.608;11.462;2023-09-08T00:20:23;14.00;99.90
49042;DHT22;34859;51.608;11.462;2023-09-08T00:23:09;14.00;99.90
49042;DHT22;34859;51.608;11.462;2023-09-08T00:25:55;14.00;99.90
49042;DHT22;34859;51.608;11.462;2023-09-08T00:28:41;14.10;99.90
49042;DHT22;34859;51.608;11.462;2023-09-08T00:31:27;14.00;99.90
49042;DHT22;34859;51.608;11.462;2023-09-08T00:34:12;14.00;99.90
49042;DHT22;34859;51.608;11.462;2023-09-08T00:36:58;13.90;99.90
49042;DHT22;34859;51.608;11.462;2023-09-08T00:39:46;13.80;99.90
49042;DHT22;34859;51.608;11.462;2023-09-08T00:42:31;13.80;99.90
49042;DHT22;34859;51.608;11.462;2023-09-08T00:45:17;13.80;99.90
49042;DHT22;34859;51.608;11.462;2023-09-08T00:48:03;13.70;99.90
49042;DHT22;34859;51.608;11.462;2023-09-08T00:50:48;13.70;99.90
49042;DHT22;34859;51.608;11.462;2023-09-08T00:53:34;13.80;99.90
49042;DHT22;34859;51.608;11.462;2023-09-08T00:56:20;14.00;99.90
49042;DHT22;34859;51.608;11.462;2023-09-08T00:59:07;14.10;99.90
49042;DHT22;34859;51.608;11.462;2023-09-08T01:01:53;14.00;99.90
49042;DHT22;34859;51.608;11.462;2023-09-08T01:04:39;14.10;99.90
49042;DHT22;34859;51.608;11.462;2023-09-08T01:07:27;14.10;99.90
49042;DHT22;34859;51.608;11.462;2023-09-08T01:10:15;14.00;99.90
49042;DHT22;34859;51.608;11.462;2023-09-08T01:13:01;14.00;99.90
49042;DHT22;34859;51.608;11.462;2023-09-08T01:15:49;14.00;99.90
49042;DHT22;34859;51.608;11.462;2023-09-08T01:18:34;14.10;99.90
49042;DHT22;34859;51.608;11.462;2023-09-08T01:21:45;14.00;99.90
49042;DHT22;34859;51.608;11.462;2023-09-08T01:27:46;13.90;99.90
49042;DHT22;34859;51.608;11.462;2023-09-08T01:30:34;14.00;99.90
49042;DHT22;34859;51.608;11.462;2023-09-08T01:33:22;14.00;99.90
49042;DHT22;34859;51.608;11.462;2023-09-08T01:36:08;14.00;99.90
49042;DHT22;34859;51.608;11.462;2023-09-08T01:38:54;14.00;99.90
49042;DHT22;34859;51.608;11.462;2023-09-08T01:41:40;13.90;99.90
49042;DHT22;34859;51.608;11.462;2023-09-08T01:44:25;13.80;99.90
49042;DHT22;34859;51.608;11.462;2023-09-08T01:47:11;13.80;99.90
49042;DHT22;34859;51.608;11.462;2023-09-08T01:49:57;13.80;99.90
49042;DHT22;34859;51.608;11.462;2023-09-08T01:52:43;13.70;99.90
49042;DHT22;34859;51.608;11.462;2023-09-08T01:55:28;13.80;99.90
49042;DHT22;34859;51.608;11.462;2023-09-08T02:01:55;13.70;99.90
49042;DHT22;34859;51.608;11.462;2023-09-08T02:04:39;13.70;99.90
49042;DHT22;34859;51.608;11.462;2023-09-08T02:07:25;13.80;99.90
49042;DHT22;34859;51.608;11.462;2023-09-08T02:10:11;13.80;99.90
49042;DHT22;34859;51.608;11.462;2023-09-08T02:12:57;13.80;99.90
49042;DHT22;34859;51.608;11.462;2023-09-08T02:15:43;13.80;99.90
49042;DHT22;34859;51.608;11.462;2023-09-08T02:18:37;13.80;99.90
49042;DHT22;34859;51.608;11.462;2023-09-08T02:21:23;13.70;99.90
49042;DHT22;34859;51.608;11.462;2023-09-08T02:24:08;13.70;99.90
49042;DHT22;34859;51.608;11.462;2023-09-08T02:26:54;13.60;99.90
49042;DHT22;34859;51.608;11.462;2023-09-08T02:29:40;13.70;99.90
49042;DHT22;34859;51.608;11.462;2023-09-08T02:32:25;13.70;99.90
49042;DHT22;34859;51.608;11.462;2023-09-08T02:35:11;13.50;99.90
49042;DHT22;34859;51.608;11.462;2023-09-08T02:37:57;13.50;99.90
49042;DHT22;34859;51.608;11.462;2023-09-08T02:40:43;13.50;99.90
49042;DHT22;34859;51.608;11.462;2023-09-08T02:43:30;13.50;99.90
49042;DHT22;34859;51.608;11.462;2023-09-08T02:46:16;13.50;99.90
49042;DHT22;34859;51.608;11.462;2023-09-08T02:49:03;13.40;99.90
49042;DHT22;34859;51.608;11.462;2023-09-08T02:51:50;13.40;99.90
49042;DHT22;34859;51.608;11.462;2023-09-08T02:54:36;13.40;99.90
49042;DHT22;34859;51.608;11.462;2023-09-08T02:57:23;13.40;99.90
49042;DHT22;34859;51.608;11.462;2023-09-08T03:00:10;13.40;99.90
49042;DHT22;34859;51.608;11.462;2023-09-08T03:02:57;13.40;99.90
49042;DHT22;34859;51.608;11.462;2023-09-08T03:05:43;13.30;99.90
49042;DHT22;34859;51.608;11.462;2023-09-08T03:08:30;13.20;99.90
49042;DHT22;34859;51.608;11.462;2023-09-08T03:11:17;13.30;99.90
49042;DHT22;34859;51.608;11.462;2023-09-08T03:14:03;13.30;99.90
49042;DHT22;34859;51.608;11.462;2023-09-08T03:16:50;13.20;99.90
49042;DHT22;34859;51.608;11.462;2023-09-08T03:19:36;13.20;99.90
49042;DHT22;34859;51.608;11.462;2023-09-08T03:22:23;13.10;99.90
49042;DHT22;34859;51.608;11.462;2023-09-08T03:25:10;13.10;99.90
49042;DHT22;34859;51.608;11.462;2023-09-08T03:27:57;13.10;99.90
49042;DHT22;34859;51.608;11.462;2023-09-08T03:30:43;13.10;99.90
49042;DHT22;34859;51.608;11.462;2023-09-08T03:33:30;13.00;99.90
49042;DHT22;34859;51.608;11.462;2023-09-08T03:36:18;13.00;99.90
49042;DHT22;34859;51.608;11.462;2023-09-08T03:39:05;13.10;99.90
49042;DHT22;34859;51.608;11.462;2023-09-08T03:41:52;13.10;99.90
49042;DHT22;34859;51.608;11.462;2023-09-08T03:44:40;13.10;99.90
49042;DHT22;34859;51.608;11.462;2023-09-08T03:47:26;13.10;99.90
49042;DHT22;34859;51.608;11.462;2023-09-08T03:50:14;13.20;99.90
49042;DHT22;34859;51.608;11.462;2023-09-08T03:53:01;13.10;99.90
49042;DHT22;34859;51.608;11.462;2023-09-08T03:56:13;13.00;99.90
49042;DHT22;34859;51.608;11.462;2023-09-08T03:59:02;12.90;99.90
49042;DHT22;34859;51.608;11.462;2023-09-08T04:01:53;12.90;99.90
49042;DHT22;34859;51.608;11.462;2023-09-08T04:05:15;12.80;99.90
49042;DHT22;34859;51.608;11.462;2023-09-08T04:08:04;12.80;99.90
49042;DHT22;34859;51.608;11.462;2023-09-08T04:10:53;12.80;99.90
49042;DHT22;34859;51.608;11.462;2023-09-08T04:13:40;12.80;99.90
49042;DHT22;34859;51.608;11.462;2023-09-08T04:16:36;12.80;99.90
49042;DHT22;34859;51.608;11.462;2023-09-08T04:19:24;12.80;99.90
49042;DHT22;34859;51.608;11.462;2023-09-08T04:22:26;12.80;99.90
49042;DHT22;34859;51.608;11.462;2023-09-08T04:25:13;12.70;99.90
49042;DHT22;34859;51.608;11.462;2023-09-08T04:28:52;12.80;99.90
49042;DHT22;34859;51.608;11.462;2023-09-08T04:32:09;12.70;99.90
49042;DHT22;34859;51.608;11.462;2023-09-08T04:38:45;12.70;99.90
49042;DHT22;34859;51.608;11.462;2023-09-08T04:42:02;12.70;99.90
49042;DHT22;34859;51.608;11.462;2023-09-08T04:45:27;12.70;99.90
49042;DHT22;34859;51.608;11.462;2023-09-08T04:48:38;12.70;99.90
49042;DHT22;34859;51.608;11.462;2023-09-08T04:52:06;12.70;99.90
49042;DHT22;34859;51.608;11.462;2023-09-08T05:14:05;12.60;99.90
49042;DHT22;34859;51.608;11.462;2023-09-08T05:54:26;13.00;99.90
49042;DHT22;34859;51.608;11.462;2023-09-08T06:01:49;13.20;99.90
49042;DHT22;34859;51.608;11.462;2023-09-08T06:13:21;13.50;99.90
49042;DHT22;34859;51.608;11.462;2023-09-08T06:20:52;13.70;99.90
49042;DHT22;34859;51.608;11.462;2023-09-08T06:28:02;13.90;99.90
49042;DHT22;34859;51.608;11.462;2023-09-08T06:30:57;14.10;99.90
49042;DHT22;34859;51.608;11.462;2023-09-08T06:37:11;14.30;99.90
49042;DHT22;34859;51.608;11.462;2023-09-08T06:39:58;14.40;99.90
49042;DHT22;34859;51.608;11.462;2023-09-08T06:42:45;14.50;99.90
49042;DHT22;34859;51.608;11.462;2023-09-08T06:45:31;14.60;99.90
49042;DHT22;34859;51.608;11.462;2023-09-08T06:48:27;14.70;99.90
49042;DHT22;34859;51.608;11.462;2023-09-08T06:51:14;14.80;99.90
49042;DHT22;34859;51.608;11.462;2023-09-08T06:54:21;14.90;99.90
49042;DHT22;34859;51.608;11.462;2023-09-08T06:57:07;15.00;99.90
49042;DHT22;34859;51.608;11.462;2023-09-08T06:59:54;15.10;99.90
49042;DHT22;34859;51.608;11.462;2023-09-08T07:02:40;15.20;99.90
49042;DHT22;34859;51.608;11.462;2023-09-08T07:05:30;15.40;99.90
49042;DHT22;34859;51.608;11.462;2023-09-08T07:08:16;15.50;99.90
49042;DHT22;34859;51.608;11.462;2023-09-08T07:11:03;15.60;99.90
49042;DHT22;34859;51.608;11.462;2023-09-08T07:13:49;15.80;99.90
49042;DHT22;34859;51.608;11.462;2023-09-08T07:16:35;15.90;99.90
49042;DHT22;34859;51.608;11.462;2023-09-08T07:19:21;16.00;99.90
49042;DHT22;34859;51.608;11.462;2023-09-08T07:22:07;16.10;99.90
49042;DHT22;34859;51.608;11.462;2023-09-08T07:24:53;16.20;99.90
49042;DHT22;34859;51.608;11.462;2023-09-08T07:27:39;16.30;99.90
49042;DHT22;34859;51.608;11.462;2023-09-08T07:30:26;16.40;99.90
49042;DHT22;34859;51.608;11.462;2023-09-08T07:33:12;16.50;99.90
49042;DHT22;34859;51.608;11.462;2023-09-08T07:35:58;16.60;99.90
49042;DHT22;34859;51.608;11.462;2023-09-08T07:38:48;16.70;99.90
49042;DHT22;34859;51.608;11.462;2023-09-08T07:41:34;16.90;99.90
49042;DHT22;34859;51.608;11.462;2023-09-08T07:44:20;17.00;99.90
49042;DHT22;34859;51.608;11.462;2023-09-08T07:47:06;17.10;99.90
49042;DHT22;34859;51.608;11.462;2023-09-08T07:49:53;17.40;99.90
49042;DHT22;34859;51.608;11.462;2023-09-08T07:52:58;17.50;99.90
49042;DHT22;34859;51.608;11.462;2023-09-08T07:55:44;17.70;99.90
49042;DHT22;34859;51.608;11.462;2023-09-08T07:58:29;17.90;99.90
49042;DHT22;34859;51.608;11.462;2023-09-08T08:01:15;18.00;99.90
49042;DHT22;34859;51.608;11.462;2023-09-08T08:04:01;18.10;99.90
49042;DHT22;34859;51.608;11.462;2023-09-08T08:06:48;18.30;99.90
49042;DHT22;34859;51.608;11.462;2023-09-08T08:09:34;18.40;99.90
49042;DHT22;34859;51.608;11.462;2023-09-08T08:12:20;18.60;99.90
49042;DHT22;34859;51.608;11.462;2023-09-08T08:15:06;18.80;99.90
49042;DHT22;34859;51.608;11.462;2023-09-08T08:17:52;18.90;99.90
49042;DHT22;34859;51.608;11.462;2023-09-08T08:20:38;19.00;99.90
49042;DHT22;34859;51.608;11.462;2023-09-08T08:23:24;19.20;99.90
49042;DHT22;34859;51.608;11.462;2023-09-08T08:26:10;19.40;99.90
49042;DHT22;34859;51.608;11.462;2023-09-08T08:28:55;19.50;99.90
49042;DHT22;34859;51.608;11.462;2023-09-08T08:31:41;19.80;99.90
49042;DHT22;34859;51.608;11.462;2023-09-08T08:34:27;19.90;99.90
49042;DHT22;34859;51.608;11.462;2023-09-08T08:37:13;20.10;99.90
49042;DHT22;34859;51.608;11.462;2023-09-08T08:39:58;20.30;99.90
49042;DHT22;34859;51.608;11.462;2023-09-08T08:42:44;20.50;99.90
49042;DHT22;34859;51.608;11.462;2023-09-08T08:45:30;20.70;99.90
49042;DHT22;34859;51.608;11.462;2023-09-08T08:48:18;20.80;99.90
49042;DHT22;34859;51.608;11.462;2023-09-08T08:51:08;21.10;99.90
49042;DHT22;34859;51.608;11.462;2023-09-08T08:53:53;21.10;99.90
49042;DHT22;34859;51.608;11.462;2023-09-08T08:56:41;21.20;99.90
49042;DHT22;34859;51.608;11.462;2023-09-08T08:59:28;21.30;99.90
49042;DHT22;34859;51.608;11.462;2023-09-08T09:02:14;21.40;99.90
49042;DHT22;34859;51.608;11.462;2023-09-08T09:05:00;21.40;99.90
49042;DHT22;34859;51.608;11.462;2023-09-08T09:07:46;21.60;99.90
49042;DHT22;34859;51.608;11.462;2023-09-08T09:10:32;21.60;99.90
49042;DHT22;34859;51.608;11.462;2023-09-08T09:13:18;21.70;99.90
49042;DHT22;34859;51.608;11.462;2023-09-08T09:16:04;21.90;99.90
49042;DHT22;34859;51.608;11.462;2023-09-08T09:18:58;21.90;99.90
49042;DHT22;34859;51.608;11.462;2023-09-08T09:21:48;22.10;99.90
49042;DHT22;34859;51.608;11.462;2023-09-08T09:24:40;22.20;99.90
49042;DHT22;34859;51.608;11.462;2023-09-08T09:27:31;22.30;99.90
49042;DHT22;34859;51.608;11.462;2023-09-08T09:30:16;22.40;99.90
49042;DHT22;34859;51.608;11.462;2023-09-08T09:33:03;22.50;99.90
49042;DHT22;34859;51.608;11.462;2023-09-08T09:35:51;22.60;99.90
49042;DHT22;34859;51.608;11.462;2023-09-08T09:38:37;22.70;99.90
49042;DHT22;34859;51.608;11.462;2023-09-08T09:41:22;22.80;99.90
49042;DHT22;34859;51.608;11.462;2023-09-08T09:44:09;22.80;99.90
49042;DHT22;34859;51.608;11.462;2023-09-08T09:46:56;23.00;99.90
49042;DHT22;34859;51.608;11.462;2023-09-08T09:49:43;23.00;99.90
49042;DHT22;34859;51.608;11.462;2023-09-08T09:52:29;23.00;99.90
49042;DHT22;34859;51.608;11.462;2023-09-08T09:55:17;23.10;99.90
49042;DHT22;34859;51.608;11.462;2023-09-08T09:58:03;23.10;99.90
49042;DHT22;34859;51.608;11.462;2023-09-08T10:00:50;23.20;99.90
49042;DHT22;34859;51.608;11.462;2023-09-08T10:03:38;23.20;99.90
49042;DHT22;34859;51.608;11.462;2023-09-08T10:06:25;23.30;99.90
49042;DHT22;34859;51.608;11.462;2023-09-08T10:09:11;23.40;99.90
49042;DHT22;34859;51.608;11.462;2023-09-08T10:12:04;23.50;99.90
49042;DHT22;34859;51.608;11.462;2023-09-08T10:14:52;23.60;99.90
49042;DHT22;34859;51.608;11.462;2023-09-08T10:17:41;23.70;99.90
49042;DHT22;34859;51.608;11.462;2023-09-08T10:20:28;23.80;99.90
49042;DHT22;34859;51.608;11.462;2023-09-08T10:23:23;23.80;99.90
49042;DHT22;34859;51.608;11.462;2023-09-08T10:26:11;23.90;99.90
49042;DHT22;34859;51.608;11.462;2023-09-08T10:28:57;23.90;99.90
49042;DHT22;34859;51.608;11.462;2023-09-08T10:31:44;24.00;99.90
49042;DHT22;34859;51.608;11.462;2023-09-08T10:34:31;24.10;99.90
49042;DHT22;34859;51.608;11.462;2023-09-08T10:37:21;24.10;99.90
49042;DHT22;34859;51.608;11.462;2023-09-08T10:40:20;24.20;99.90
49042;DHT22;34859;51.608;11.462;2023-09-08T10:43:10;24.30;99.90
49042;DHT22;34859;51.608;11.462;2023-09-08T10:45:57;24.30;99.90
49042;DHT22;34859;51.608;11.462;2023-09-08T10:48:43;24.30;99.90
49042;DHT22;34859;51.608;11.462;2023-09-08T10:51:29;24.40;99.90
49042;DHT22;34859;51.608;11.462;2023-09-08T10:57:27;24.40;99.90
49042;DHT22;34859;51.608;11.462;2023-09-08T11:00:17;24.50;99.90
49042;DHT22;34859;51.608;11.462;2023-09-08T11:03:03;24.60;99.90
49042;DHT22;34859;51.608;11.462;2023-09-08T11:05:49;24.60;99.90
49042;DHT22;34859;51.608;11.462;2023-09-08T11:08:41;24.70;99.90
49042;DHT22;34859;51.608;11.462;2023-09-08T11:11:27;24.80;99.90
49042;DHT22;34859;51.608;11.462;2023-09-08T11:14:18;24.70;99.90
49042;DHT22;34859;51.608;11.462;2023-09-08T11:17:04;24.80;99.90
49042;DHT22;34859;51.608;11.462;2023-09-08T11:19:50;24.90;99.90
49042;DHT22;34859;51.608;11.462;2023-09-08T11:22:37;24.90;99.90
49042;DHT22;34859;51.608;11.462;2023-09-08T11:25:23;25.00;99.90
49042;DHT22;34859;51.608;11.462;2023-09-08T11:28:09;25.00;99.90
49042;DHT22;34859;51.608;11.462;2023-09-08T11:30:55;24.90;99.90
49042;DHT22;34859;51.608;11.462;2023-09-08T11:33:41;25.00;99.90
49042;DHT22;34859;51.608;11.462;2023-09-08T11:36:27;25.20;99.90
49042;DHT22;34859;51.608;11.462;2023-09-08T11:39:14;25.30;99.90
49042;DHT22;34859;51.608;11.462;2023-09-08T11:42:01;25.40;99.90
49042;DHT22;34859;51.608;11.462;2023-09-08T11:44:48;25.40;99.90
49042;DHT22;34859;51.608;11.462;2023-09-08T11:47:34;25.50;99.90
49042;DHT22;34859;51.608;11.462;2023-09-08T11:50:20;25.50;99.90
49042;DHT22;34859;51.608;11.462;2023-09-08T11:53:06;25.70;99.90
49042;DHT22;34859;51.608;11.462;2023-09-08T11:55:52;25.60;99.90
49042;DHT22;34859;51.608;11.462;2023-09-08T11:58:38;25.80;99.90
49042;DHT22;34859;51.608;11.462;2023-09-08T12:01:24;25.80;99.90
49042;DHT22;34859;51.608;11.462;2023-09-08T12:04:17;25.80;99.90
49042;DHT22;34859;51.608;11.462;2023-09-08T12:07:04;25.80;99.90
49042;DHT22;34859;51.608;11.462;2023-09-08T12:09:50;25.80;99.90
49042;DHT22;34859;51.608;11.462;2023-09-08T12:12:47;25.80;99.90
49042;DHT22;34859;51.608;11.462;2023-09-08T12:15:38;25.80;99.90
49042;DHT22;34859;51.608;11.462;2023-09-08T12:18:37;25.90;99.90
49042;DHT22;34859;51.608;11.462;2023-09-08T12:21:24;26.00;99.90
49042;DHT22;34859;51.608;11.462;2023-09-08T12:24:10;26.00;99.90
49042;DHT22;34859;51.608;11.462;2023-09-08T12:27:02;26.00;99.90
49042;DHT22;34859;51.608;11.462;2023-09-08T12:29:55;26.00;99.90
49042;DHT22;34859;51.608;11.462;2023-09-08T12:32:41;26.00;99.90
49042;DHT22;34859;51.608;11.462;2023-09-08T12:35:27;26.00;99.90
49042;DHT22;34859;51.608;11.462;2023-09-08T12:38:14;26.00;99.90
49042;DHT22;34859;51.608;11.462;2023-09-08T12:40:59;26.00;99.90
49042;DHT22;34859;51.608;11.462;2023-09-08T12:43:45;26.00;99.90
49042;DHT22;34859;51.608;11.462;2023-09-08T12:46:31;26.00;99.90
49042;DHT22;34859;51.608;11.462;2023-09-08T12:49:19;26.10;99.90
49042;DHT22;34859;51.608;11.462;2023-09-08T12:52:05;26.00;99.90
49042;DHT22;34859;51.608;11.462;2023-09-08T12:54:51;26.10;99.90
49042;DHT22;34859;51.608;11.462;2023-09-08T12:57:37;26.10;99.90
49042;DHT22;34859;51.608;11.462;2023-09-08T13:00:23;26.20;99.90
49042;DHT22;34859;51.608;11.462;2023-09-08T13:03:08;26.30;99.90
49042;DHT22;34859;51.608;11.462;2023-09-08T13:05:55;26.40;99.90
49042;DHT22;34859;51.608;11.462;2023-09-08T13:08:42;26.50;99.90
49042;DHT22;34859;51.608;11.462;2023-09-08T13:11:27;26.50;99.90
49042;DHT22;34859;51.608;11.462;2023-09-08T13:14:13;26.50;99.90
49042;DHT22;34859;51.608;11.462;2023-09-08T13:16:59;26.60;99.90
49042;DHT22;34859;51.608;11.462;2023-09-08T13:19:45;26.70;99.90
49042;DHT22;34859;51.608;11.462;2023-09-08T13:22:30;26.60;99.90
49042;DHT22;34859;51.608;11.462;2023-09-08T13:25:16;26.50;99.90
49042;DHT22;34859;51.608;11.462;2023-09-08T13:28:02;26.60;99.90
49042;DHT22;34859;51.608;11.462;2023-09-08T13:30:48;26.60;99.90
49042;DHT22;34859;51.608;11.462;2023-09-08T13:33:33;26.50;99.90
49042;DHT22;34859;51.608;11.462;2023-09-08T13:36:19;26.40;99.90
49042;DHT22;34859;51.608;11.462;2023-09-08T13:39:05;26.30;99.90
49042;DHT22;34859;51.608;11.462;2023-09-08T13:41:55;26.40;99.90
49042;DHT22;34859;51.608;11.462;2023-09-08T13:44:41;26.50;99.90
49042;DHT22;34859;51.608;11.462;2023-09-08T13:47:26;26.50;99.90
49042;DHT22;34859;51.608;11.462;2023-09-08T13:50:13;26.40;99.90
49042;DHT22;34859;51.608;11.462;2023-09-08T13:52:58;26.20;99.90
49042;DHT22;34859;51.608;11.462;2023-09-08T13:55:44;26.20;99.90
49042;DHT22;34859;51.608;11.462;2023-09-08T13:58:30;26.10;99.90
49042;DHT22;34859;51.608;11.462;2023-09-08T14:01:15;26.00;99.90
49042;DHT22;34859;51.608;11.462;2023-09-08T14:04:05;26.00;99.90
49042;DHT22;34859;51.608;11.462;2023-09-08T14:06:53;26.20;99.90
49042;DHT22;34859;51.608;11.462;2023-09-08T14:09:39;26.30;99.90
49042;DHT22;34859;51.608;11.462;2023-09-08T14:12:24;26.40;99.90
49042;DHT22;34859;51.608;11.462;2023-09-08T14:15:10;26.40;99.90
49042;DHT22;34859;51.608;11.462;2023-09-08T14:18:00;26.30;99.90
49042;DHT22;34859;51.608;11.462;2023-09-08T14:20:46;26.40;99.90
49042;DHT22;34859;51.608;11.462;2023-09-08T14:23:32;26.40;99.90
49042;DHT22;34859;51.608;11.462;2023-09-08T14:26:19;26.30;99.90
49042;DHT22;34859;51.608;11.462;2023-09-08T14:29:06;26.30;99.90
49042;DHT22;34859;51.608;11.462;2023-09-08T14:31:51;26.20;99.90
49042;DHT22;34859;51.608;11.462;2023-09-08T14:34:37;26.20;99.90
49042;DHT22;34859;51.608;11.462;2023-09-08T14:37:23;26.10;99.90
49042;DHT22;34859;51.608;11.462;2023-09-08T14:40:09;26.00;99.90
49042;DHT22;34859;51.608;11.462;2023-09-08T14:42:54;25.90;99.90
49042;DHT22;34859;51.608;11.462;2023-09-08T14:45:40;25.90;99.90
49042;DHT22;34859;51.608;11.462;2023-09-08T14:48:26;26.00;99.90
49042;DHT22;34859;51.608;11.462;2023-09-08T14:51:11;26.10;99.90
49042;DHT22;34859;51.608;11.462;2023-09-08T14:53:57;26.20;99.90
49042;DHT22;34859;51.608;11.462;2023-09-08T14:56:43;26.20;99.90
49042;DHT22;34859;51.608;11.462;2023-09-08T14:59:28;26.30;99.90
49042;DHT22;34859;51.608;11.462;2023-09-08T15:02:14;26.30;99.90
49042;DHT22;34859;51.608;11.462;2023-09-08T15:05:00;26.20;99.90
49042;DHT22;34859;51.608;11.462;2023-09-08T15:07:46;26.00;99.90
49042;DHT22;34859;51.608;11.462;2023-09-08T15:10:31;26.00;99.90
49042;DHT22;34859;51.608;11.462;2023-09-08T15:13:17;25.90;99.90
49042;DHT22;34859;51.608;11.462;2023-09-08T15:16:03;25.90;99.90
49042;DHT22;34859;51.608;11.462;2023-09-08T15:18:49;25.70;99.90
49042;DHT22;34859;51.608;11.462;2023-09-08T15:21:35;25.80;99.90
49042;DHT22;34859;51.608;11.462;2023-09-08T15:24:21;25.70;99.90
49042;DHT22;34859;51.608;11.462;2023-09-08T15:27:06;25.70;99.90
49042;DHT22;34859;51.608;11.462;2023-09-08T15:29:53;25.60;99.90
49042;DHT22;34859;51.608;11.462;2023-09-08T15:32:38;25.50;99.90
49042;DHT22;34859;51.608;11.462;2023-09-08T15:35:24;25.50;99.90
49042;DHT22;34859;51.608;11.462;2023-09-08T15:38:10;25.40;99.90
49042;DHT22;34859;51.608;11.462;2023-09-08T15:43:58;25.40;99.90
49042;DHT22;34859;51.608;11.462;2023-09-08T15:46:43;25.30;99.90
49042;DHT22;34859;51.608;11.462;2023-09-08T15:49:30;25.30;99.90
49042;DHT22;34859;51.608;11.462;2023-09-08T15:52:16;25.20;99.90
49042;DHT22;34859;51.608;11.462;2023-09-08T15:55:02;25.00;99.90
49042;DHT22;34859;51.608;11.462;2023-09-08T15:57:48;25.00;99.90
49042;DHT22;34859;51.608;11.462;2023-09-08T16:00:33;25.00;99.90
49042;DHT22;34859;51.608;11.462;2023-09-08T16:03:19;24.90;99.90
49042;DHT22;34859;51.608;11.462;2023-09-08T16:06:05;24.80;99.90
49042;DHT22;34859;51.608;11.462;2023-09-08T16:08:51;24.80;99.90
49042;DHT22;34859;51.608;11.462;2023-09-08T16:11:36;24.70;99.90
49042;DHT22;34859;51.608;11.462;2023-09-08T16:14:22;24.70;99.90
49042;DHT22;34859;51.608;11.462;2023-09-08T16:17:08;24.60;99.90
49042;DHT22;34859;51.608;11.462;2023-09-08T16:19:53;24.40;99.90
49042;DHT22;34859;51.608;11.462;2023-09-08T16:22:39;24.30;99.90
49042;DHT22;34859;51.608;11.462;2023-09-08T16:25:25;24.10;99.90
49042;DHT22;34859;51.608;11.462;2023-09-08T16:28:10;24.00;99.90
49042;DHT22;34859;51.608;11.462;2023-09-08T16:30:56;23.90;99.90
49042;DHT22;34859;51.608;11.462;2023-09-08T16:33:42;23.70;99.90
49042;DHT22;34859;51.608;11.462;2023-09-08T16:36:27;23.60;99.90
49042;DHT22;34859;51.608;11.462;2023-09-08T16:39:13;23.50;99.90
49042;DHT22;34859;51.608;11.462;2023-09-08T16:41:59;23.30;99.90
49042;DHT22;34859;51.608;11.462;2023-09-08T16:44:44;23.20;99.90
49042;DHT22;34859;51.608;11.462;2023-09-08T16:47:30;23.10;99.90
49042;DHT22;34859;51.608;11.462;2023-09-08T16:50:16;22.90;99.90
49042;DHT22;34859;51.608;11.462;2023-09-08T16:53:01;22.90;99.90
49042;DHT22;34859;51.608;11.462;2023-09-08T16:55:48;22.80;99.90
49042;DHT22;34859;51.608;11.462;2023-09-08T16:58:34;22.70;99.90
49042;DHT22;34859;51.608;11.462;2023-09-08T17:01:21;22.50;99.90
49042;DHT22;34859;51.608;11.462;2023-09-08T17:04:07;22.40;99.90
49042;DHT22;34859;51.608;11.462;2023-09-08T17:06:54;22.20;99.90
49042;DHT22;34859;51.608;11.462;2023-09-08T17:09:40;22.00;99.90
49042;DHT22;34859;51.608;11.462;2023-09-08T17:12:26;21.80;99.90
49042;DHT22;34859;51.608;11.462;2023-09-08T17:15:12;21.60;99.90
49042;DHT22;34859;51.608;11.462;2023-09-08T17:17:57;21.40;99.90
49042;DHT22;34859;51.608;11.462;2023-09-08T17:20:43;21.30;99.90
49042;DHT22;34859;51.608;11.462;2023-09-08T17:23:29;21.10;99.90
49042;DHT22;34859;51.608;11.462;2023-09-08T17:26:15;21.00;99.90
49042;DHT22;34859;51.608;11.462;2023-09-08T17:29:01;20.90;99.90
49042;DHT22;34859;51.608;11.462;2023-09-08T17:31:46;20.70;99.90
49042;DHT22;34859;51.608;11.462;2023-09-08T17:34:32;20.40;99.90
49042;DHT22;34859;51.608;11.462;2023-09-08T17:37:18;20.20;99.90
49042;DHT22;34859;51.608;11.462;2023-09-08T17:40:04;20.10;99.90
49042;DHT22;34859;51.608;11.462;2023-09-08T17:42:50;19.90;99.90
49042;DHT22;34859;51.608;11.462;2023-09-08T17:45:36;19.90;99.90
49042;DHT22;34859;51.608;11.462;2023-09-08T17:48:23;19.80;99.90
49042;DHT22;34859;51.608;11.462;2023-09-08T17:51:09;19.60;99.90
49042;DHT22;34859;51.608;11.462;2023-09-08T17:53:54;19.50;99.90
49042;DHT22;34859;51.608;11.462;2023-09-08T17:56:40;19.20;99.90
49042;DHT22;34859;51.608;11.462;2023-09-08T17:59:26;19.10;99.90
49042;DHT22;34859;51.608;11.462;2023-09-08T18:02:11;18.90;99.90
49042;DHT22;34859;51.608;11.462;2023-09-08T18:04:57;18.80;99.90
49042;DHT22;34859;51.608;11.462;2023-09-08T18:07:43;18.70;99.90
49042;DHT22;34859;51.608;11.462;2023-09-08T18:10:30;18.60;99.90
49042;DHT22;34859;51.608;11.462;2023-09-08T18:13:15;18.60;99.90
49042;DHT22;34859;51.608;11.462;2023-09-08T18:16:02;18.60;99.90
49042;DHT22;34859;51.608;11.462;2023-09-08T18:18:48;18.40;99.90
49042;DHT22;34859;51.608;11.462;2023-09-08T18:21:34;18.40;99.90
49042;DHT22;34859;51.608;11.462;2023-09-08T18:24:20;18.30;99.90
49042;DHT22;34859;51.608;11.462;2023-09-08T18:27:05;18.30;99.90
49042;DHT22;34859;51.608;11.462;2023-09-08T18:29:51;18.30;99.90
49042;DHT22;34859;51.608;11.462;2023-09-08T18:32:37;18.20;99.90
49042;DHT22;34859;51.608;11.462;2023-09-08T18:35:23;18.00;99.90
49042;DHT22;34859;51.608;11.462;2023-09-08T18:38:08;18.00;99.90
49042;DHT22;34859;51.608;11.462;2023-09-08T18:40:54;17.80;99.90
49042;DHT22;34859;51.608;11.462;2023-09-08T18:43:40;17.70;99.90
49042;DHT22;34859;51.608;11.462;2023-09-08T18:46:25;17.80;99.90
49042;DHT22;34859;51.608;11.462;2023-09-08T18:49:11;17.80;99.90
49042;DHT22;34859;51.608;11.462;2023-09-08T18:51:57;17.80;99.90
49042;DHT22;34859;51.608;11.462;2023-09-08T18:54:42;17.60;99.90
49042;DHT22;34859;51.608;11.462;2023-09-08T18:57:29;17.40;99.90
49042;DHT22;34859;51.608;11.462;2023-09-08T19:00:16;17.20;99.90